sensor_id;sensor_type;location;lat;lon;timestamp;temperature;humidity
10296;DHT22;5193;51.032;6.356;2023-07-28T00:00:24;17.40;99.90
10296;DHT22;5193;51.032;6.356;2023-07-28T00:02:49;17.40;99.90
10296;DHT22;5193;51.032;6.356;2023-07-28T00:05:15;17.30;99.90
10296;DHT22;5193;51.032;6.356;2023-07-28T00:07:41;17.30;99.90
10296;DHT22;5193;51.032;6.356;2023-07-28T00:10:06;17.30;99.90
10296;DHT22;5193;51.032;6.356;2023-07-28T00:12:32;17.30;99.90
10296;DHT22;5193;51.032;6.356;2023-07-28T00:14:58;17.40;99.90
10296;DHT22;5193;51.032;6.356;2023-07-28T00:17:25;17.40;99.90
10296;DHT22;5193;51.032;6.356;2023-07-28T00:19:51;17.40;99.90
10296;DHT22;5193;51.032;6.356;2023-07-28T00:22:16;17.40;99.90
10296;DHT22;5193;51.032;6.356;2023-07-28T00:24:42;17.40;99.90
10296;DHT22;5193;51.032;6.356;2023-07-28T00:27:08;17.30;99.90
10296;DHT22;5193;51.032;6.356;2023-07-28T00:29:33;17.30;99.90
10296;DHT22;5193;51.032;6.356;2023-07-28T00:31:59;17.40;99.90
10296;DHT22;5193;51.032;6.356;2023-07-28T00:34:24;17.40;99.90
10296;DHT22;5193;51.032;6.356;2023-07-28T00:36:50;17.40;99.90
10296;DHT22;5193;51.032;6.356;2023-07-28T00:39:15;17.40;99.90
10296;DHT22;5193;51.032;6.356;2023-07-28T00:41:41;17.40;99.90
10296;DHT22;5193;51.032;6.356;2023-07-28T00:44:06;17.40;99.90
10296;DHT22;5193;51.032;6.356;2023-07-28T00:46:32;17.40;99.90
10296;DHT22;5193;51.032;6.356;2023-07-28T00:48:58;17.40;99.90
10296;DHT22;5193;51.032;6.356;2023-07-28T00:51:23;17.40;99.90
10296;DHT22;5193;51.032;6.356;2023-07-28T00:53:50;17.40;99.90
10296;DHT22;5193;51.032;6.356;2023-07-28T00:56:18;17.40;99.90
10296;DHT22;5193;51.032;6.356;2023-07-28T00:58:44;17.40;99.90
10296;DHT22;5193;51.032;6.356;2023-07-28T01:01:10;17.40;99.90
10296;DHT22;5193;51.032;6.356;2023-07-28T01:03:35;17.40;99.90
10296;DHT22;5193;51.032;6.356;2023-07-28T01:09:12;17.40;99.90
10296;DHT22;5193;51.032;6.356;2023-07-28T01:11:53;17.40;99.90
10296;DHT22;5193;51.032;6.356;2023-07-28T01:14:18;17.40;99.90
10296;DHT22;5193;51.032;6.356;2023-07-28T01:16:44;17.40;99.90
10296;DHT22;5193;51.032;6.356;2023-07-28T01:19:10;17.40;99.90
10296;DHT22;5193;51.032;6.356;2023-07-28T01:21:37;17.40;99.90
10296;DHT22;5193;51.032;6.356;2023-07-28T01:24:22;17.40;99.90
10296;DHT22;5193;51.032;6.356;2023-07-28T01:26:51;17.40;99.90
10296;DHT22;5193;51.032;6.356;2023-07-28T01:29:18;17.40;99.90
10296;DHT22;5193;51.032;6.356;2023-07-28T01:31:46;17.40;99.90
10296;DHT22;5193;51.032;6.356;2023-07-28T01:34:13;17.30;99.90
10296;DHT22;5193;51.032;6.356;2023-07-28T01:36:39;17.30;99.90
10296;DHT22;5193;51.032;6.356;2023-07-28T01:39:04;17.30;99.90
10296;DHT22;5193;51.032;6.356;2023-07-28T01:41:30;17.40;99.90
10296;DHT22;5193;51.032;6.356;2023-07-28T01:43:56;17.40;99.90
10296;DHT22;5193;51.032;6.356;2023-07-28T01:46:22;17.30;99.90
10296;DHT22;5193;51.032;6.356;2023-07-28T01:48:48;17.40;99.90
10296;DHT22;5193;51.032;6.356;2023-07-28T01:51:14;17.40;99.90
10296;DHT22;5193;51.032;6.356;2023-07-28T01:53:39;17.40;99.90
10296;DHT22;5193;51.032;6.356;2023-07-28T01:56:05;17.40;99.90
10296;DHT22;5193;51.032;6.356;2023-07-28T01:58:30;17.40;99.90
10296;DHT22;5193;51.032;6.356;2023-07-28T02:00:56;17.40;99.90
10296;DHT22;5193;51.032;6.356;2023-07-28T02:03:22;17.40;99.90
10296;DHT22;5193;51.032;6.356;2023-07-28T02:05:48;17.40;99.90
10296;DHT22;5193;51.032;6.356;2023-07-28T02:08:14;17.40;99.90
10296;DHT22;5193;51.032;6.356;2023-07-28T02:10:39;17.40;99.90
10296;DHT22;5193;51.032;6.356;2023-07-28T02:13:05;17.40;99.90
10296;DHT22;5193;51.032;6.356;2023-07-28T02:15:31;17.40;99.90
10296;DHT22;5193;51.032;6.356;2023-07-28T02:17:56;17.40;99.90
10296;DHT22;5193;51.032;6.356;2023-07-28T02:20:22;17.40;99.90
10296;DHT22;5193;51.032;6.356;2023-07-28T02:22:48;17.40;99.90
10296;DHT22;5193;51.032;6.356;2023-07-28T02:25:13;17.40;99.90
10296;DHT22;5193;51.032;6.356;2023-07-28T02:27:39;17.40;99.90
10296;DHT22;5193;51.032;6.356;2023-07-28T02:30:05;17.40;99.90
10296;DHT22;5193;51.032;6.356;2023-07-28T02:32:32;17.40;99.90
10296;DHT22;5193;51.032;6.356;2023-07-28T02:34:58;17.40;99.90
10296;DHT22;5193;51.032;6.356;2023-07-28T02:37:24;17.40;99.90
10296;DHT22;5193;51.032;6.356;2023-07-28T02:39:50;17.40;99.90
10296;DHT22;5193;51.032;6.356;2023-07-28T02:42:16;17.40;99.90
10296;DHT22;5193;51.032;6.356;2023-07-28T02:44:42;17.40;99.90
10296;DHT22;5193;51.032;6.356;2023-07-28T02:47:07;17.40;99.90
10296;DHT22;5193;51.032;6.356;2023-07-28T02:49:33;17.40;99.90
10296;DHT22;5193;51.032;6.356;2023-07-28T02:51:59;17.40;99.90
10296;DHT22;5193;51.032;6.356;2023-07-28T02:54:25;17.40;99.90
10296;DHT22;5193;51.032;6.356;2023-07-28T02:56:51;17.40;99.90
10296;DHT22;5193;51.032;6.356;2023-07-28T02:59:17;17.50;99.90
10296;DHT22;5193;51.032;6.356;2023-07-28T03:01:43;17.40;99.90
10296;DHT22;5193;51.032;6.356;2023-07-28T03:04:08;17.40;99.90
10296;DHT22;5193;51.032;6.356;2023-07-28T03:06:34;17.40;99.90
10296;DHT22;5193;51.032;6.356;2023-07-28T03:09:00;17.50;99.90
10296;DHT22;5193;51.032;6.356;2023-07-28T03:11:25;17.50;99.90
10296;DHT22;5193;51.032;6.356;2023-07-28T03:13:51;17.50;99.90
10296;DHT22;5193;51.032;6.356;2023-07-28T03:16:16;17.50;99.90
10296;DHT22;5193;51.032;6.356;2023-07-28T03:18:42;17.50;99.90
10296;DHT22;5193;51.032;6.356;2023-07-28T03:21:11;17.50;99.90
10296;DHT22;5193;51.032;6.356;2023-07-28T03:23:36;17.50;99.90
10296;DHT22;5193;51.032;6.356;2023-07-28T03:26:02;17.50;99.90
10296;DHT22;5193;51.032;6.356;2023-07-28T03:28:28;17.50;99.90
10296;DHT22;5193;51.032;6.356;2023-07-28T03:30:54;17.50;99.90
10296;DHT22;5193;51.032;6.356;2023-07-28T03:33:19;17.50;99.90
10296;DHT22;5193;51.032;6.356;2023-07-28T03:35:45;17.50;99.90
10296;DHT22;5193;51.032;6.356;2023-07-28T03:38:10;17.50;99.90
10296;DHT22;5193;51.032;6.356;2023-07-28T03:40:36;17.50;99.90
10296;DHT22;5193;51.032;6.356;2023-07-28T03:43:02;17.50;99.90
10296;DHT22;5193;51.032;6.356;2023-07-28T03:45:28;17.50;99.90
10296;DHT22;5193;51.032;6.356;2023-07-28T03:47:54;17.50;99.90
10296;DHT22;5193;51.032;6.356;2023-07-28T03:50:20;17.50;99.90
10296;DHT22;5193;51.032;6.356;2023-07-28T03:52:45;17.50;99.90
10296;DHT22;5193;51.032;6.356;2023-07-28T03:55:11;17.50;99.90
10296;DHT22;5193;51.032;6.356;2023-07-28T03:57:36;17.50;99.90
10296;DHT22;5193;51.032;6.356;2023-07-28T04:00:02;17.50;99.90
10296;DHT22;5193;51.032;6.356;2023-07-28T04:02:29;17.50;99.90
10296;DHT22;5193;51.032;6.356;2023-07-28T04:04:55;17.50;99.90
10296;DHT22;5193;51.032;6.356;2023-07-28T04:07:21;17.50;99.90
10296;DHT22;5193;51.032;6.356;2023-07-28T04:09:47;17.50;99.90
10296;DHT22;5193;51.032;6.356;2023-07-28T04:12:12;17.50;99.90
10296;DHT22;5193;51.032;6.356;2023-07-28T04:14:38;17.50;99.90
10296;DHT22;5193;51.032;6.356;2023-07-28T04:17:04;17.50;99.90
10296;DHT22;5193;51.032;6.356;2023-07-28T04:19:29;17.50;99.90
10296;DHT22;5193;51.032;6.356;2023-07-28T04:21:56;17.50;99.90
10296;DHT22;5193;51.032;6.356;2023-07-28T04:24:22;17.50;99.90
10296;DHT22;5193;51.032;6.356;2023-07-28T04:26:47;17.50;99.90
10296;DHT22;5193;51.032;6.356;2023-07-28T04:29:14;17.50;99.90
10296;DHT22;5193;51.032;6.356;2023-07-28T04:31:40;17.50;99.90
10296;DHT22;5193;51.032;6.356;2023-07-28T04:34:05;17.50;99.90
10296;DHT22;5193;51.032;6.356;2023-07-28T04:36:31;17.50;99.90
10296;DHT22;5193;51.032;6.356;2023-07-28T04:38:57;17.60;99.90
10296;DHT22;5193;51.032;6.356;2023-07-28T04:41:22;17.60;99.90
10296;DHT22;5193;51.032;6.356;2023-07-28T04:43:48;17.60;99.90
10296;DHT22;5193;51.032;6.356;2023-07-28T04:46:13;17.60;99.90
10296;DHT22;5193;51.032;6.356;2023-07-28T04:48:39;17.60;99.90
10296;DHT22;5193;51.032;6.356;2023-07-28T04:51:05;17.60;99.90
10296;DHT22;5193;51.032;6.356;2023-07-28T04:53:30;17.60;99.90
10296;DHT22;5193;51.032;6.356;2023-07-28T04:55:56;17.60;99.90
10296;DHT22;5193;51.032;6.356;2023-07-28T04:58:22;17.70;99.90
10296;DHT22;5193;51.032;6.356;2023-07-28T05:00:47;17.60;99.90
10296;DHT22;5193;51.032;6.356;2023-07-28T05:03:13;17.70;99.90
10296;DHT22;5193;51.032;6.356;2023-07-28T05:05:38;17.70;99.90
10296;DHT22;5193;51.032;6.356;2023-07-28T05:08:04;17.70;99.90
10296;DHT22;5193;51.032;6.356;2023-07-28T05:10:30;17.70;99.90
10296;DHT22;5193;51.032;6.356;2023-07-28T05:12:55;17.70;99.90
10296;DHT22;5193;51.032;6.356;2023-07-28T05:15:21;17.70;99.90
10296;DHT22;5193;51.032;6.356;2023-07-28T05:17:49;17.70;99.90
10296;DHT22;5193;51.032;6.356;2023-07-28T05:20:14;17.70;99.90
10296;DHT22;5193;51.032;6.356;2023-07-28T05:22:41;17.70;99.90
10296;DHT22;5193;51.032;6.356;2023-07-28T05:25:07;17.70;99.90
10296;DHT22;5193;51.032;6.356;2023-07-28T05:27:33;17.80;99.90
10296;DHT22;5193;51.032;6.356;2023-07-28T05:29:58;17.80;99.90
10296;DHT22;5193;51.032;6.356;2023-07-28T05:32:24;17.70;99.90
10296;DHT22;5193;51.032;6.356;2023-07-28T05:34:50;17.80;99.90
10296;DHT22;5193;51.032;6.356;2023-07-28T05:37:15;17.80;99.90
10296;DHT22;5193;51.032;6.356;2023-07-28T05:39:41;17.80;99.90
10296;DHT22;5193;51.032;6.356;2023-07-28T05:42:08;17.80;99.90
10296;DHT22;5193;51.032;6.356;2023-07-28T05:44:34;17.80;99.90
10296;DHT22;5193;51.032;6.356;2023-07-28T05:46:59;17.80;99.90
10296;DHT22;5193;51.032;6.356;2023-07-28T05:49:25;17.80;99.90
10296;DHT22;5193;51.032;6.356;2023-07-28T05:51:50;17.80;99.90
10296;DHT22;5193;51.032;6.356;2023-07-28T05:54:16;17.80;99.90
10296;DHT22;5193;51.032;6.356;2023-07-28T05:56:42;17.80;99.90
10296;DHT22;5193;51.032;6.356;2023-07-28T05:59:08;17.80;99.90
10296;DHT22;5193;51.032;6.356;2023-07-28T06:01:33;17.90;99.90
10296;DHT22;5193;51.032;6.356;2023-07-28T06:03:59;17.80;99.90
10296;DHT22;5193;51.032;6.356;2023-07-28T06:06:28;17.80;99.90
10296;DHT22;5193;51.032;6.356;2023-07-28T06:08:54;17.90;99.90
10296;DHT22;5193;51.032;6.356;2023-07-28T06:11:20;17.90;99.90
10296;DHT22;5193;51.032;6.356;2023-07-28T06:13:46;17.90;99.90
10296;DHT22;5193;51.032;6.356;2023-07-28T06:16:15;17.90;99.90
10296;DHT22;5193;51.032;6.356;2023-07-28T06:18:41;17.90;99.90
10296;DHT22;5193;51.032;6.356;2023-07-28T06:21:07;18.00;99.90
10296;DHT22;5193;51.032;6.356;2023-07-28T06:23:33;18.00;99.90
10296;DHT22;5193;51.032;6.356;2023-07-28T06:25:58;17.90;99.90
10296;DHT22;5193;51.032;6.356;2023-07-28T06:28:24;18.00;99.90
10296;DHT22;5193;51.032;6.356;2023-07-28T06:30:54;18.00;99.90
10296;DHT22;5193;51.032;6.356;2023-07-28T06:33:20;18.00;99.90
10296;DHT22;5193;51.032;6.356;2023-07-28T06:35:46;18.10;99.90
10296;DHT22;5193;51.032;6.356;2023-07-28T06:38:12;18.10;99.90
10296;DHT22;5193;51.032;6.356;2023-07-28T06:40:38;18.00;99.90
10296;DHT22;5193;51.032;6.356;2023-07-28T06:43:03;18.10;99.90
10296;DHT22;5193;51.032;6.356;2023-07-28T06:45:29;18.10;99.90
10296;DHT22;5193;51.032;6.356;2023-07-28T06:47:55;18.10;99.90
10296;DHT22;5193;51.032;6.356;2023-07-28T06:50:20;18.10;99.90
10296;DHT22;5193;51.032;6.356;2023-07-28T06:52:46;18.10;99.90
10296;DHT22;5193;51.032;6.356;2023-07-28T06:55:16;18.20;99.90
10296;DHT22;5193;51.032;6.356;2023-07-28T06:57:42;18.20;99.90
10296;DHT22;5193;51.032;6.356;2023-07-28T07:00:08;18.20;99.90
10296;DHT22;5193;51.032;6.356;2023-07-28T07:02:37;18.20;99.90
10296;DHT22;5193;51.032;6.356;2023-07-28T07:05:03;18.30;99.90
10296;DHT22;5193;51.032;6.356;2023-07-28T07:07:30;18.30;99.90
10296;DHT22;5193;51.032;6.356;2023-07-28T07:09:55;18.30;99.90
10296;DHT22;5193;51.032;6.356;2023-07-28T07:12:21;18.40;99.90
10296;DHT22;5193;51.032;6.356;2023-07-28T07:14:47;18.40;99.90
10296;DHT22;5193;51.032;6.356;2023-07-28T07:17:13;18.40;99.90
10296;DHT22;5193;51.032;6.356;2023-07-28T07:19:38;18.40;99.90
10296;DHT22;5193;51.032;6.356;2023-07-28T07:22:04;18.50;99.90
10296;DHT22;5193;51.032;6.356;2023-07-28T07:24:31;18.50;99.90
10296;DHT22;5193;51.032;6.356;2023-07-28T07:26:56;18.50;99.90
10296;DHT22;5193;51.032;6.356;2023-07-28T07:29:22;18.50;99.90
10296;DHT22;5193;51.032;6.356;2023-07-28T07:31:48;18.50;99.90
10296;DHT22;5193;51.032;6.356;2023-07-28T07:34:14;18.50;99.90
10296;DHT22;5193;51.032;6.356;2023-07-28T07:36:39;18.60;99.90
10296;DHT22;5193;51.032;6.356;2023-07-28T07:39:05;18.60;99.90
10296;DHT22;5193;51.032;6.356;2023-07-28T07:41:31;18.60;99.90
10296;DHT22;5193;51.032;6.356;2023-07-28T07:43:57;18.60;99.90
10296;DHT22;5193;51.032;6.356;2023-07-28T07:46:23;18.70;99.90
10296;DHT22;5193;51.032;6.356;2023-07-28T07:48:49;18.70;99.90
10296;DHT22;5193;51.032;6.356;2023-07-28T07:51:16;18.70;99.90
10296;DHT22;5193;51.032;6.356;2023-07-28T07:53:42;18.70;99.90
10296;DHT22;5193;51.032;6.356;2023-07-28T07:56:07;18.80;99.90
10296;DHT22;5193;51.032;6.356;2023-07-28T07:58:34;18.80;99.90
10296;DHT22;5193;51.032;6.356;2023-07-28T08:00:59;18.90;99.90
10296;DHT22;5193;51.032;6.356;2023-07-28T08:03:25;19.00;99.90
10296;DHT22;5193;51.032;6.356;2023-07-28T08:05:52;19.00;99.90
10296;DHT22;5193;51.032;6.356;2023-07-28T08:08:18;19.10;99.90
10296;DHT22;5193;51.032;6.356;2023-07-28T08:10:48;19.10;99.90
10296;DHT22;5193;51.032;6.356;2023-07-28T08:13:14;19.20;99.90
10296;DHT22;5193;51.032;6.356;2023-07-28T08:15:42;19.20;99.90
10296;DHT22;5193;51.032;6.356;2023-07-28T08:18:07;19.30;99.90
10296;DHT22;5193;51.032;6.356;2023-07-28T08:20:33;19.40;99.90
10296;DHT22;5193;51.032;6.356;2023-07-28T08:22:59;19.50;99.90
10296;DHT22;5193;51.032;6.356;2023-07-28T08:25:24;19.50;99.90
10296;DHT22;5193;51.032;6.356;2023-07-28T08:27:50;19.70;99.90
10296;DHT22;5193;51.032;6.356;2023-07-28T08:30:16;19.80;99.90
10296;DHT22;5193;51.032;6.356;2023-07-28T08:32:42;19.90;99.90
10296;DHT22;5193;51.032;6.356;2023-07-28T08:35:09;20.00;99.90
10296;DHT22;5193;51.032;6.356;2023-07-28T08:37:35;20.10;99.90
10296;DHT22;5193;51.032;6.356;2023-07-28T08:40:00;20.20;99.90
10296;DHT22;5193;51.032;6.356;2023-07-28T08:42:29;20.40;99.90
10296;DHT22;5193;51.032;6.356;2023-07-28T08:44:55;20.60;99.90
10296;DHT22;5193;51.032;6.356;2023-07-28T08:47:21;20.70;99.90
10296;DHT22;5193;51.032;6.356;2023-07-28T08:49:47;20.80;99.90
10296;DHT22;5193;51.032;6.356;2023-07-28T08:52:16;20.80;99.90
10296;DHT22;5193;51.032;6.356;2023-07-28T08:54:42;21.00;99.90
10296;DHT22;5193;51.032;6.356;2023-07-28T08:57:09;21.20;99.90
10296;DHT22;5193;51.032;6.356;2023-07-28T08:59:35;21.30;99.90
10296;DHT22;5193;51.032;6.356;2023-07-28T09:02:02;21.40;99.90
10296;DHT22;5193;51.032;6.356;2023-07-28T09:04:28;21.40;99.90
10296;DHT22;5193;51.032;6.356;2023-07-28T09:06:53;21.40;99.90
10296;DHT22;5193;51.032;6.356;2023-07-28T09:09:21;21.50;99.90
10296;DHT22;5193;51.032;6.356;2023-07-28T09:11:51;21.50;99.90
10296;DHT22;5193;51.032;6.356;2023-07-28T09:14:18;21.60;99.90
10296;DHT22;5193;51.032;6.356;2023-07-28T09:16:45;21.60;99.90
10296;DHT22;5193;51.032;6.356;2023-07-28T09:19:11;21.70;99.90
10296;DHT22;5193;51.032;6.356;2023-07-28T09:21:42;21.70;99.90
10296;DHT22;5193;51.032;6.356;2023-07-28T09:24:12;21.70;99.90
10296;DHT22;5193;51.032;6.356;2023-07-28T09:29:14;21.60;99.90
10296;DHT22;5193;51.032;6.356;2023-07-28T09:31:41;21.50;99.90
10296;DHT22;5193;51.032;6.356;2023-07-28T09:34:12;21.50;99.90
10296;DHT22;5193;51.032;6.356;2023-07-28T09:36:39;21.40;99.90
10296;DHT22;5193;51.032;6.356;2023-07-28T09:39:06;21.40;99.90
10296;DHT22;5193;51.032;6.356;2023-07-28T09:41:35;21.40;99.90
10296;DHT22;5193;51.032;6.356;2023-07-28T09:44:03;21.30;99.90
10296;DHT22;5193;51.032;6.356;2023-07-28T09:46:29;21.30;99.90
10296;DHT22;5193;51.032;6.356;2023-07-28T09:48:57;21.40;99.90
10296;DHT22;5193;51.032;6.356;2023-07-28T09:51:29;21.50;99.90
10296;DHT22;5193;51.032;6.356;2023-07-28T09:54:06;21.70;99.90
10296;DHT22;5193;51.032;6.356;2023-07-28T09:56:37;21.80;99.90
10296;DHT22;5193;51.032;6.356;2023-07-28T09:59:11;21.80;99.90
10296;DHT22;5193;51.032;6.356;2023-07-28T10:01:39;21.80;99.90
10296;DHT22;5193;51.032;6.356;2023-07-28T10:04:05;21.90;99.90
10296;DHT22;5193;51.032;6.356;2023-07-28T10:06:32;22.00;99.90
10296;DHT22;5193;51.032;6.356;2023-07-28T10:08:59;21.90;99.90
10296;DHT22;5193;51.032;6.356;2023-07-28T10:11:25;21.90;99.90
10296;DHT22;5193;51.032;6.356;2023-07-28T10:13:54;22.00;99.90
10296;DHT22;5193;51.032;6.356;2023-07-28T10:16:30;22.00;99.90
10296;DHT22;5193;51.032;6.356;2023-07-28T10:18:56;22.00;99.90
10296;DHT22;5193;51.032;6.356;2023-07-28T10:21:27;22.00;99.90
10296;DHT22;5193;51.032;6.356;2023-07-28T10:23:55;22.00;99.90
10296;DHT22;5193;51.032;6.356;2023-07-28T10:26:31;22.10;99.90
10296;DHT22;5193;51.032;6.356;2023-07-28T10:29:16;22.10;99.90
10296;DHT22;5193;51.032;6.356;2023-07-28T10:31:52;22.10;99.90
10296;DHT22;5193;51.032;6.356;2023-07-28T10:34:18;22.20;99.90
10296;DHT22;5193;51.032;6.356;2023-07-28T10:36:44;22.20;99.90
10296;DHT22;5193;51.032;6.356;2023-07-28T10:39:17;22.30;99.90
10296;DHT22;5193;51.032;6.356;2023-07-28T10:44:28;22.50;99.90
10296;DHT22;5193;51.032;6.356;2023-07-28T10:46:55;22.50;99.90
10296;DHT22;5193;51.032;6.356;2023-07-28T10:49:21;22.50;99.90
10296;DHT22;5193;51.032;6.356;2023-07-28T10:51:48;22.50;99.90
10296;DHT22;5193;51.032;6.356;2023-07-28T10:54:14;22.60;99.90
10296;DHT22;5193;51.032;6.356;2023-07-28T10:56:42;22.60;99.90
10296;DHT22;5193;51.032;6.356;2023-07-28T10:59:08;22.70;99.90
10296;DHT22;5193;51.032;6.356;2023-07-28T11:01:37;22.90;99.90
10296;DHT22;5193;51.032;6.356;2023-07-28T11:04:16;23.00;99.90
10296;DHT22;5193;51.032;6.356;2023-07-28T11:06:47;23.10;99.90
10296;DHT22;5193;51.032;6.356;2023-07-28T11:09:16;23.20;99.90
10296;DHT22;5193;51.032;6.356;2023-07-28T11:11:42;23.30;99.90
10296;DHT22;5193;51.032;6.356;2023-07-28T11:14:08;23.30;99.90
10296;DHT22;5193;51.032;6.356;2023-07-28T11:16:41;23.40;99.90
10296;DHT22;5193;51.032;6.356;2023-07-28T11:19:08;23.50;99.90
10296;DHT22;5193;51.032;6.356;2023-07-28T11:21:37;23.50;99.90
10296;DHT22;5193;51.032;6.356;2023-07-28T11:24:03;23.60;99.90
10296;DHT22;5193;51.032;6.356;2023-07-28T11:26:30;23.30;99.90
10296;DHT22;5193;51.032;6.356;2023-07-28T11:28:56;23.20;99.90
10296;DHT22;5193;51.032;6.356;2023-07-28T11:31:25;22.90;99.90
10296;DHT22;5193;51.032;6.356;2023-07-28T11:33:51;22.70;99.90
10296;DHT22;5193;51.032;6.356;2023-07-28T11:36:37;22.60;99.90
10296;DHT22;5193;51.032;6.356;2023-07-28T11:39:02;22.50;99.90
10296;DHT22;5193;51.032;6.356;2023-07-28T11:41:31;22.40;99.90
10296;DHT22;5193;51.032;6.356;2023-07-28T11:43:58;22.40;99.90
10296;DHT22;5193;51.032;6.356;2023-07-28T11:46:42;22.30;99.90
10296;DHT22;5193;51.032;6.356;2023-07-28T11:49:15;22.30;99.90
10296;DHT22;5193;51.032;6.356;2023-07-28T11:51:44;22.20;99.90
10296;DHT22;5193;51.032;6.356;2023-07-28T11:54:14;22.30;99.90
10296;DHT22;5193;51.032;6.356;2023-07-28T11:56:41;22.40;99.90
10296;DHT22;5193;51.032;6.356;2023-07-28T11:59:08;22.60;99.90
10296;DHT22;5193;51.032;6.356;2023-07-28T12:01:33;22.70;99.90
10296;DHT22;5193;51.032;6.356;2023-07-28T12:03:59;22.80;99.90
10296;DHT22;5193;51.032;6.356;2023-07-28T12:06:26;22.80;99.90
10296;DHT22;5193;51.032;6.356;2023-07-28T12:08:51;22.70;99.90
10296;DHT22;5193;51.032;6.356;2023-07-28T12:11:17;22.70;99.90
10296;DHT22;5193;51.032;6.356;2023-07-28T12:13:50;22.70;99.90
10296;DHT22;5193;51.032;6.356;2023-07-28T12:16:38;22.70;99.90
10296;DHT22;5193;51.032;6.356;2023-07-28T12:19:04;22.70;99.90
10296;DHT22;5193;51.032;6.356;2023-07-28T12:21:30;22.90;99.90
10296;DHT22;5193;51.032;6.356;2023-07-28T12:23:56;23.00;99.90
10296;DHT22;5193;51.032;6.356;2023-07-28T12:26:22;23.20;99.90
10296;DHT22;5193;51.032;6.356;2023-07-28T12:28:47;23.30;99.90
10296;DHT22;5193;51.032;6.356;2023-07-28T12:31:13;23.30;99.90
10296;DHT22;5193;51.032;6.356;2023-07-28T12:33:39;23.30;99.90
10296;DHT22;5193;51.032;6.356;2023-07-28T12:36:04;23.20;99.90
10296;DHT22;5193;51.032;6.356;2023-07-28T12:38:31;23.10;99.90
10296;DHT22;5193;51.032;6.356;2023-07-28T12:40:57;23.10;99.90
10296;DHT22;5193;51.032;6.356;2023-07-28T12:43:22;23.20;99.90
10296;DHT22;5193;51.032;6.356;2023-07-28T12:45:49;23.30;99.90
10296;DHT22;5193;51.032;6.356;2023-07-28T12:48:15;23.40;99.90
10296;DHT22;5193;51.032;6.356;2023-07-28T12:50:40;23.60;99.90
10296;DHT22;5193;51.032;6.356;2023-07-28T12:53:06;23.70;99.90
10296;DHT22;5193;51.032;6.356;2023-07-28T12:55:32;23.80;99.90
10296;DHT22;5193;51.032;6.356;2023-07-28T12:58:00;23.90;99.90
10296;DHT22;5193;51.032;6.356;2023-07-28T13:00:25;23.90;99.90
10296;DHT22;5193;51.032;6.356;2023-07-28T13:02:51;23.90;99.90
10296;DHT22;5193;51.032;6.356;2023-07-28T13:05:17;23.90;99.90
10296;DHT22;5193;51.032;6.356;2023-07-28T13:07:43;24.00;99.90
10296;DHT22;5193;51.032;6.356;2023-07-28T13:10:10;24.00;99.90
10296;DHT22;5193;51.032;6.356;2023-07-28T13:12:37;24.00;99.90
10296;DHT22;5193;51.032;6.356;2023-07-28T13:15:03;24.00;99.90
10296;DHT22;5193;51.032;6.356;2023-07-28T13:17:29;24.00;99.90
10296;DHT22;5193;51.032;6.356;2023-07-28T13:19:54;23.90;99.90
10296;DHT22;5193;51.032;6.356;2023-07-28T13:22:22;23.80;99.90
10296;DHT22;5193;51.032;6.356;2023-07-28T13:24:48;23.50;99.90
10296;DHT22;5193;51.032;6.356;2023-07-28T13:27:14;22.90;99.90
10296;DHT22;5193;51.032;6.356;2023-07-28T13:29:39;22.40;99.90
10296;DHT22;5193;51.032;6.356;2023-07-28T13:32:18;22.00;99.90
10296;DHT22;5193;51.032;6.356;2023-07-28T13:34:43;21.80;99.90
10296;DHT22;5193;51.032;6.356;2023-07-28T13:37:09;21.50;99.90
10296;DHT22;5193;51.032;6.356;2023-07-28T13:39:35;21.40;99.90
10296;DHT22;5193;51.032;6.356;2023-07-28T13:42:01;21.40;99.90
10296;DHT22;5193;51.032;6.356;2023-07-28T13:44:26;21.20;99.90
10296;DHT22;5193;51.032;6.356;2023-07-28T13:46:53;21.10;99.90
10296;DHT22;5193;51.032;6.356;2023-07-28T13:49:19;21.10;99.90
10296;DHT22;5193;51.032;6.356;2023-07-28T13:51:45;21.10;99.90
10296;DHT22;5193;51.032;6.356;2023-07-28T13:54:11;21.10;99.90
10296;DHT22;5193;51.032;6.356;2023-07-28T13:56:37;21.20;99.90
10296;DHT22;5193;51.032;6.356;2023-07-28T13:59:02;21.20;99.90
10296;DHT22;5193;51.032;6.356;2023-07-28T14:01:28;21.30;99.90
10296;DHT22;5193;51.032;6.356;2023-07-28T14:03:54;21.40;99.90
10296;DHT22;5193;51.032;6.356;2023-07-28T14:06:19;21.40;99.90
10296;DHT22;5193;51.032;6.356;2023-07-28T14:08:45;21.50;99.90
10296;DHT22;5193;51.032;6.356;2023-07-28T14:11:11;21.60;99.90
10296;DHT22;5193;51.032;6.356;2023-07-28T14:13:38;21.60;99.90
10296;DHT22;5193;51.032;6.356;2023-07-28T14:16:05;21.70;99.90
10296;DHT22;5193;51.032;6.356;2023-07-28T14:18:31;21.70;99.90
10296;DHT22;5193;51.032;6.356;2023-07-28T14:20:57;21.70;99.90
10296;DHT22;5193;51.032;6.356;2023-07-28T14:23:24;21.70;99.90
10296;DHT22;5193;51.032;6.356;2023-07-28T14:25:51;21.70;99.90
10296;DHT22;5193;51.032;6.356;2023-07-28T14:28:16;21.70;99.90
10296;DHT22;5193;51.032;6.356;2023-07-28T14:30:42;21.70;99.90
10296;DHT22;5193;51.032;6.356;2023-07-28T14:33:13;21.60;99.90
10296;DHT22;5193;51.032;6.356;2023-07-28T14:35:39;21.60;99.90
10296;DHT22;5193;51.032;6.356;2023-07-28T14:38:05;21.50;99.90
10296;DHT22;5193;51.032;6.356;2023-07-28T14:40:31;21.40;99.90
10296;DHT22;5193;51.032;6.356;2023-07-28T14:42:56;21.40;99.90
10296;DHT22;5193;51.032;6.356;2023-07-28T14:45:22;21.20;99.90
10296;DHT22;5193;51.032;6.356;2023-07-28T14:47:48;21.10;99.90
10296;DHT22;5193;51.032;6.356;2023-07-28T14:50:14;21.00;99.90
10296;DHT22;5193;51.032;6.356;2023-07-28T14:52:39;20.90;99.90
10296;DHT22;5193;51.032;6.356;2023-07-28T14:55:05;20.90;99.90
10296;DHT22;5193;51.032;6.356;2023-07-28T14:57:31;20.90;99.90
10296;DHT22;5193;51.032;6.356;2023-07-28T14:59:56;20.90;99.90
10296;DHT22;5193;51.032;6.356;2023-07-28T15:02:22;21.00;99.90
10296;DHT22;5193;51.032;6.356;2023-07-28T15:04:48;21.10;99.90
10296;DHT22;5193;51.032;6.356;2023-07-28T15:07:14;21.20;99.90
10296;DHT22;5193;51.032;6.356;2023-07-28T15:09:40;21.40;99.90
10296;DHT22;5193;51.032;6.356;2023-07-28T15:12:06;21.50;99.90
10296;DHT22;5193;51.032;6.356;2023-07-28T15:14:32;21.60;99.90
10296;DHT22;5193;51.032;6.356;2023-07-28T15:16:58;21.60;99.90
10296;DHT22;5193;51.032;6.356;2023-07-28T15:19:23;21.80;99.90
10296;DHT22;5193;51.032;6.356;2023-07-28T15:21:49;22.00;99.90
10296;DHT22;5193;51.032;6.356;2023-07-28T15:24:14;22.20;99.90
10296;DHT22;5193;51.032;6.356;2023-07-28T15:26:40;22.40;99.90
10296;DHT22;5193;51.032;6.356;2023-07-28T15:29:06;22.60;99.90
10296;DHT22;5193;51.032;6.356;2023-07-28T15:31:32;22.80;99.90
10296;DHT22;5193;51.032;6.356;2023-07-28T15:33:57;22.90;99.90
10296;DHT22;5193;51.032;6.356;2023-07-28T15:36:23;23.10;99.90
10296;DHT22;5193;51.032;6.356;2023-07-28T15:38:49;23.30;99.90
10296;DHT22;5193;51.032;6.356;2023-07-28T15:41:14;23.40;99.90
10296;DHT22;5193;51.032;6.356;2023-07-28T15:43:40;23.50;99.90
10296;DHT22;5193;51.032;6.356;2023-07-28T15:46:05;23.70;99.90
10296;DHT22;5193;51.032;6.356;2023-07-28T15:48:37;23.70;99.90